sensor_id;sensor_type;location;lat;lon;timestamp;pressure;altitude;pressure_sealevel;temperature;humidity
32638;BME280;19045;52.268;10.506;2023-03-02T00:01:43;101669.03;;;0.47;70.21
32638;BME280;19045;52.268;10.506;2023-03-02T00:04:15;101659.44;;;0.46;70.96
32638;BME280;19045;52.268;10.506;2023-03-02T00:06:43;101660.78;;;0.42;71.20
32638;BME280;19045;52.268;10.506;2023-03-02T00:09:10;101648.41;;;0.43;70.96
32638;BME280;19045;52.268;10.506;2023-03-02T00:11:36;101662.09;;;0.38;71.62
32638;BME280;19045;52.268;10.506;2023-03-02T00:14:04;101647.88;;;0.39;71.67
32638;BME280;19045;52.268;10.506;2023-03-02T00:16:30;101654.78;;;0.32;72.19
32638;BME280;19045;52.268;10.506;2023-03-02T00:18:57;101655.94;;;0.30;72.36
32638;BME280;19045;52.268;10.506;2023-03-02T00:21:25;101654.59;;;0.26;72.78
32638;BME280;19045;52.268;10.506;2023-03-02T00:23:52;101655.44;;;0.26;72.21
32638;BME280;19045;52.268;10.506;2023-03-02T00:26:18;101654.75;;;0.16;73.21
32638;BME280;19045;52.268;10.506;2023-03-02T00:28:45;101657.56;;;0.23;73.28
32638;BME280;19045;52.268;10.506;2023-03-02T00:31:11;101649.13;;;0.19;73.10
32638;BME280;19045;52.268;10.506;2023-03-02T00:33:38;101651.41;;;0.06;73.86
32638;BME280;19045;52.268;10.506;2023-03-02T00:36:05;101651.84;;;0.02;74.56
32638;BME280;19045;52.268;10.506;2023-03-02T00:38:33;101650.84;;;-0.06;74.45
32638;BME280;19045;52.268;10.506;2023-03-02T00:41:00;101653.06;;;-0.27;76.23
32638;BME280;19045;52.268;10.506;2023-03-02T00:43:26;101653.34;;;-0.30;76.73
32638;BME280;19045;52.268;10.506;2023-03-02T00:45:53;101660.28;;;-0.29;76.10
32638;BME280;19045;52.268;10.506;2023-03-02T00:48:20;101649.41;;;-0.26;76.33
32638;BME280;19045;52.268;10.506;2023-03-02T00:50:46;101648.16;;;-0.14;75.80
32638;BME280;19045;52.268;10.506;2023-03-02T00:53:13;101645.66;;;-0.15;75.79
32638;BME280;19045;52.268;10.506;2023-03-02T00:55:41;101643.75;;;-0.05;75.49
32638;BME280;19045;52.268;10.506;2023-03-02T00:58:07;101652.66;;;-0.06;75.93
32638;BME280;19045;52.268;10.506;2023-03-02T01:00:36;101645.03;;;-0.09;76.08
32638;BME280;19045;52.268;10.506;2023-03-02T01:03:02;101647.34;;;-0.06;76.19
32638;BME280;19045;52.268;10.506;2023-03-02T01:05:29;101640.97;;;0.05;75.36
32638;BME280;19045;52.268;10.506;2023-03-02T01:07:55;101636.06;;;0.10;75.12
32638;BME280;19045;52.268;10.506;2023-03-02T01:10:22;101641.53;;;0.16;74.71
32638;BME280;19045;52.268;10.506;2023-03-02T01:12:50;101640.00;;;0.14;74.51
32638;BME280;19045;52.268;10.506;2023-03-02T01:15:17;101635.22;;;0.09;75.50
32638;BME280;19045;52.268;10.506;2023-03-02T01:17:43;101639.31;;;0.04;75.45
32638;BME280;19045;52.268;10.506;2023-03-02T01:20:11;101634.34;;;0.00;76.20
32638;BME280;19045;52.268;10.506;2023-03-02T01:22:38;101636.00;;;0.02;76.08
32638;BME280;19045;52.268;10.506;2023-03-02T01:25:05;101634.53;;;0.07;75.48
32638;BME280;19045;52.268;10.506;2023-03-02T01:27:32;101625.81;;;0.07;75.80
32638;BME280;19045;52.268;10.506;2023-03-02T01:30:00;101631.94;;;0.15;75.50
32638;BME280;19045;52.268;10.506;2023-03-02T01:32:27;101634.13;;;0.20;75.21
32638;BME280;19045;52.268;10.506;2023-03-02T01:34:54;101634.44;;;0.25;74.42
32638;BME280;19045;52.268;10.506;2023-03-02T01:37:20;101632.13;;;0.22;75.15
32638;BME280;19045;52.268;10.506;2023-03-02T01:39:47;101629.03;;;0.26;75.08
32638;BME280;19045;52.268;10.506;2023-03-02T01:42:14;101625.03;;;0.30;74.84
32638;BME280;19045;52.268;10.506;2023-03-02T01:44:42;101619.28;;;0.35;74.73
32638;BME280;19045;52.268;10.506;2023-03-02T01:47:14;101614.50;;;0.38;75.14
32638;BME280;19045;52.268;10.506;2023-03-02T01:49:44;101610.56;;;0.42;74.48
32638;BME280;19045;52.268;10.506;2023-03-02T01:52:12;101610.22;;;0.45;74.44
32638;BME280;19045;52.268;10.506;2023-03-02T01:54:40;101607.41;;;0.47;74.47
32638;BME280;19045;52.268;10.506;2023-03-02T01:57:08;101606.56;;;0.46;74.62
32638;BME280;19045;52.268;10.506;2023-03-02T01:59:37;101612.56;;;0.48;74.58
32638;BME280;19045;52.268;10.506;2023-03-02T02:02:07;101604.94;;;0.45;74.65
32638;BME280;19045;52.268;10.506;2023-03-02T02:04:38;101601.94;;;0.40;74.83
32638;BME280;19045;52.268;10.506;2023-03-02T02:07:06;101600.78;;;0.35;74.86
32638;BME280;19045;52.268;10.506;2023-03-02T02:09:36;101601.78;;;0.34;75.23
32638;BME280;19045;52.268;10.506;2023-03-02T02:12:04;101598.78;;;0.29;75.11
32638;BME280;19045;52.268;10.506;2023-03-02T02:14:31;101600.56;;;0.20;76.00
32638;BME280;19045;52.268;10.506;2023-03-02T02:16:57;101597.75;;;0.14;76.78
32638;BME280;19045;52.268;10.506;2023-03-02T02:19:37;101597.75;;;0.06;77.96
32638;BME280;19045;52.268;10.506;2023-03-02T02:22:08;101593.25;;;-0.02;78.28
32638;BME280;19045;52.268;10.506;2023-03-02T02:24:39;101593.06;;;-0.09;78.85
32638;BME280;19045;52.268;10.506;2023-03-02T02:27:10;101594.34;;;-0.13;79.90
32638;BME280;19045;52.268;10.506;2023-03-02T02:29:41;101599.94;;;-0.16;79.75
32638;BME280;19045;52.268;10.506;2023-03-02T02:32:12;101591.19;;;-0.16;79.73
32638;BME280;19045;52.268;10.506;2023-03-02T02:34:44;101596.28;;;-0.23;80.38
32638;BME280;19045;52.268;10.506;2023-03-02T02:37:15;101592.34;;;-0.27;80.30
32638;BME280;19045;52.268;10.506;2023-03-02T02:39:47;101599.22;;;-0.34;81.33
32638;BME280;19045;52.268;10.506;2023-03-02T02:42:19;101603.81;;;-0.36;80.96
32638;BME280;19045;52.268;10.506;2023-03-02T02:44:47;101597.88;;;-0.38;82.17
32638;BME280;19045;52.268;10.506;2023-03-02T02:47:15;101599.84;;;-0.40;82.50
32638;BME280;19045;52.268;10.506;2023-03-02T02:49:43;101598.13;;;-0.49;83.17
32638;BME280;19045;52.268;10.506;2023-03-02T02:52:14;101598.03;;;-0.39;83.95
32638;BME280;19045;52.268;10.506;2023-03-02T02:54:42;101586.81;;;-0.41;84.41
32638;BME280;19045;52.268;10.506;2023-03-02T02:57:11;101599.94;;;-0.49;86.33
32638;BME280;19045;52.268;10.506;2023-03-02T02:59:43;101587.56;;;-0.57;87.37
32638;BME280;19045;52.268;10.506;2023-03-02T03:02:16;101587.56;;;-0.57;87.48
32638;BME280;19045;52.268;10.506;2023-03-02T03:04:43;101593.47;;;-0.63;88.68
32638;BME280;19045;52.268;10.506;2023-03-02T03:07:16;101589.97;;;-0.64;89.33
32638;BME280;19045;52.268;10.506;2023-03-02T03:09:45;101580.25;;;-0.63;90.46
32638;BME280;19045;52.268;10.506;2023-03-02T03:12:15;101580.91;;;-0.61;91.26
32638;BME280;19045;52.268;10.506;2023-03-02T03:14:44;101585.38;;;-0.62;91.89
32638;BME280;19045;52.268;10.506;2023-03-02T03:17:11;101584.22;;;-0.59;92.24
32638;BME280;19045;52.268;10.506;2023-03-02T03:19:39;101571.00;;;-0.67;93.37
32638;BME280;19045;52.268;10.506;2023-03-02T03:22:07;101574.16;;;-0.64;93.77
32638;BME280;19045;52.268;10.506;2023-03-02T03:24:36;101573.63;;;-0.67;94.15
32638;BME280;19045;52.268;10.506;2023-03-02T03:27:03;101576.91;;;-0.73;95.00
32638;BME280;19045;52.268;10.506;2023-03-02T03:29:32;101576.59;;;-0.70;95.52
32638;BME280;19045;52.268;10.506;2023-03-02T03:32:01;101574.41;;;-0.75;95.57
32638;BME280;19045;52.268;10.506;2023-03-02T03:34:29;101572.91;;;-0.77;96.70
32638;BME280;19045;52.268;10.506;2023-03-02T03:36:56;101583.28;;;-0.76;96.73
32638;BME280;19045;52.268;10.506;2023-03-02T03:39:26;101579.63;;;-0.83;96.73
32638;BME280;19045;52.268;10.506;2023-03-02T03:41:53;101579.16;;;-0.78;97.05
32638;BME280;19045;52.268;10.506;2023-03-02T03:44:20;101587.38;;;-0.81;96.93
32638;BME280;19045;52.268;10.506;2023-03-02T03:46:47;101591.84;;;-0.82;97.32
32638;BME280;19045;52.268;10.506;2023-03-02T03:49:15;101587.31;;;-0.89;98.09
32638;BME280;19045;52.268;10.506;2023-03-02T03:51:42;101591.19;;;-1.01;98.07
32638;BME280;19045;52.268;10.506;2023-03-02T03:54:09;101595.63;;;-1.02;98.25
32638;BME280;19045;52.268;10.506;2023-03-02T03:56:38;101595.28;;;-1.07;98.87
32638;BME280;19045;52.268;10.506;2023-03-02T03:59:07;101598.84;;;-1.16;99.26
32638;BME280;19045;52.268;10.506;2023-03-02T04:01:36;101588.22;;;-1.24;99.68
32638;BME280;19045;52.268;10.506;2023-03-02T04:04:04;101598.22;;;-1.28;100.00
32638;BME280;19045;52.268;10.506;2023-03-02T04:06:32;101591.47;;;-1.30;100.00
32638;BME280;19045;52.268;10.506;2023-03-02T04:08:59;101605.91;;;-1.34;100.00
32638;BME280;19045;52.268;10.506;2023-03-02T04:11:29;101599.19;;;-1.29;100.00
32638;BME280;19045;52.268;10.506;2023-03-02T04:13:56;101600.88;;;-1.28;100.00
32638;BME280;19045;52.268;10.506;2023-03-02T04:16:22;101593.94;;;-1.29;100.00
32638;BME280;19045;52.268;10.506;2023-03-02T04:18:49;101604.25;;;-1.35;100.00
32638;BME280;19045;52.268;10.506;2023-03-02T04:21:15;101602.13;;;-1.32;100.00
32638;BME280;19045;52.268;10.506;2023-03-02T04:23:43;101604.47;;;-1.29;100.00
32638;BME280;19045;52.268;10.506;2023-03-02T04:26:10;101602.38;;;-1.25;100.00
32638;BME280;19045;52.268;10.506;2023-03-02T04:28:37;101614.22;;;-1.29;100.00
32638;BME280;19045;52.268;10.506;2023-03-02T04:31:04;101606.88;;;-1.35;100.00
32638;BME280;19045;52.268;10.506;2023-03-02T04:33:30;101605.81;;;-1.25;100.00
32638;BME280;19045;52.268;10.506;2023-03-02T04:35:57;101605.00;;;-1.25;100.00
32638;BME280;19045;52.268;10.506;2023-03-02T04:38:24;101603.19;;;-1.25;100.00
32638;BME280;19045;52.268;10.506;2023-03-02T04:40:55;101599.91;;;-1.27;100.00
32638;BME280;19045;52.268;10.506;2023-03-02T04:43:21;101596.94;;;-1.24;100.00
32638;BME280;19045;52.268;10.506;2023-03-02T04:45:48;101596.47;;;-1.19;100.00
32638;BME280;19045;52.268;10.506;2023-03-02T04:48:14;101596.69;;;-1.13;100.00
32638;BME280;19045;52.268;10.506;2023-03-02T04:50:41;101600.34;;;-1.14;100.00
32638;BME280;19045;52.268;10.506;2023-03-02T04:53:08;101604.91;;;-1.16;100.00
32638;BME280;19045;52.268;10.506;2023-03-02T04:55:36;101598.53;;;-1.13;100.00
32638;BME280;19045;52.268;10.506;2023-03-02T04:58:17;101606.66;;;-1.07;100.00
32638;BME280;19045;52.268;10.506;2023-03-02T05:00:47;101600.59;;;-0.99;100.00
32638;BME280;19045;52.268;10.506;2023-03-02T05:03:21;101603.25;;;-0.99;100.00
32638;BME280;19045;52.268;10.506;2023-03-02T05:05:48;101600.66;;;-0.91;100.00
32638;BME280;19045;52.268;10.506;2023-03-02T05:08:18;101594.56;;;-0.91;100.00
32638;BME280;19045;52.268;10.506;2023-03-02T05:10:50;101588.31;;;-0.90;100.00
32638;BME280;19045;52.268;10.506;2023-03-02T05:13:19;101581.13;;;-0.80;100.00
32638;BME280;19045;52.268;10.506;2023-03-02T05:15:46;101588.25;;;-0.73;100.00
32638;BME280;19045;52.268;10.506;2023-03-02T05:18:24;101586.72;;;-0.83;100.00
32638;BME280;19045;52.268;10.506;2023-03-02T05:20:54;101582.63;;;-0.78;100.00
32638;BME280;19045;52.268;10.506;2023-03-02T05:23:22;101581.59;;;-0.85;100.00
32638;BME280;19045;52.268;10.506;2023-03-02T05:25:49;101583.56;;;-0.87;100.00
32638;BME280;19045;52.268;10.506;2023-03-02T05:31:18;101580.19;;;-0.71;100.00
32638;BME280;19045;52.268;10.506;2023-03-02T05:33:55;101585.63;;;-0.73;100.00
32638;BME280;19045;52.268;10.506;2023-03-02T05:36:31;101591.53;;;-0.79;100.00
32638;BME280;19045;52.268;10.506;2023-03-02T05:39:07;101593.50;;;-0.81;100.00
32638;BME280;19045;52.268;10.506;2023-03-02T05:41:35;101594.16;;;-0.79;100.00
32638;BME280;19045;52.268;10.506;2023-03-02T05:44:10;101580.09;;;-0.87;100.00
32638;BME280;19045;52.268;10.506;2023-03-02T05:46:41;101594.63;;;-0.83;100.00
32638;BME280;19045;52.268;10.506;2023-03-02T05:49:08;101575.34;;;-0.84;100.00
32638;BME280;19045;52.268;10.506;2023-03-02T05:51:34;101582.19;;;-0.73;100.00
32638;BME280;19045;52.268;10.506;2023-03-02T05:54:01;101576.91;;;-0.73;100.00
32638;BME280;19045;52.268;10.506;2023-03-02T05:56:28;101582.97;;;-0.73;100.00
32638;BME280;19045;52.268;10.506;2023-03-02T05:58:54;101580.34;;;-0.73;100.00
32638;BME280;19045;52.268;10.506;2023-03-02T06:01:21;101584.28;;;-0.77;100.00
32638;BME280;19045;52.268;10.506;2023-03-02T06:03:49;101589.72;;;-0.78;100.00
32638;BME280;19045;52.268;10.506;2023-03-02T06:06:15;101594.69;;;-0.75;100.00
32638;BME280;19045;52.268;10.506;2023-03-02T06:08:43;101593.53;;;-0.73;100.00
32638;BME280;19045;52.268;10.506;2023-03-02T06:11:10;101593.03;;;-0.76;100.00
32638;BME280;19045;52.268;10.506;2023-03-02T06:13:37;101600.13;;;-0.77;100.00
32638;BME280;19045;52.268;10.506;2023-03-02T06:16:05;101601.00;;;-0.68;100.00
32638;BME280;19045;52.268;10.506;2023-03-02T06:18:32;101603.28;;;-0.73;100.00
32638;BME280;19045;52.268;10.506;2023-03-02T06:21:00;101614.19;;;-0.68;100.00
32638;BME280;19045;52.268;10.506;2023-03-02T06:23:26;101613.03;;;-0.66;100.00
32638;BME280;19045;52.268;10.506;2023-03-02T06:25:53;101614.38;;;-0.62;100.00
32638;BME280;19045;52.268;10.506;2023-03-02T06:28:20;101621.13;;;-0.67;100.00
32638;BME280;19045;52.268;10.506;2023-03-02T06:30:47;101617.13;;;-0.71;100.00
32638;BME280;19045;52.268;10.506;2023-03-02T06:33:14;101623.06;;;-0.69;100.00
32638;BME280;19045;52.268;10.506;2023-03-02T06:35:41;101616.47;;;-0.47;100.00
32638;BME280;19045;52.268;10.506;2023-03-02T06:38:09;101615.13;;;-0.52;100.00
32638;BME280;19045;52.268;10.506;2023-03-02T06:40:35;101621.56;;;-0.46;100.00
32638;BME280;19045;52.268;10.506;2023-03-02T06:43:04;101620.59;;;-0.45;100.00
32638;BME280;19045;52.268;10.506;2023-03-02T06:45:32;101629.59;;;-0.56;100.00
32638;BME280;19045;52.268;10.506;2023-03-02T06:48:09;101618.59;;;-0.51;100.00
32638;BME280;19045;52.268;10.506;2023-03-02T06:50:36;101628.31;;;-0.52;100.00
32638;BME280;19045;52.268;10.506;2023-03-02T06:53:03;101628.69;;;-0.46;100.00
32638;BME280;19045;52.268;10.506;2023-03-02T06:55:31;101630.59;;;-0.57;100.00
32638;BME280;19045;52.268;10.506;2023-03-02T06:57:57;101623.78;;;-0.59;100.00
32638;BME280;19045;52.268;10.506;2023-03-02T07:00:24;101627.66;;;-0.54;100.00
32638;BME280;19045;52.268;10.506;2023-03-02T07:02:52;101614.47;;;-0.54;100.00
32638;BME280;19045;52.268;10.506;2023-03-02T07:05:19;101615.00;;;-0.42;100.00
32638;BME280;19045;52.268;10.506;2023-03-02T07:07:46;101616.66;;;-0.41;100.00
32638;BME280;19045;52.268;10.506;2023-03-02T07:10:13;101613.34;;;-0.43;100.00
32638;BME280;19045;52.268;10.506;2023-03-02T07:12:41;101613.41;;;-0.35;100.00
32638;BME280;19045;52.268;10.506;2023-03-02T07:15:09;101612.88;;;-0.38;100.00
32638;BME280;19045;52.268;10.506;2023-03-02T07:17:39;101611.63;;;-0.26;100.00
32638;BME280;19045;52.268;10.506;2023-03-02T07:20:07;101612.13;;;-0.23;100.00
32638;BME280;19045;52.268;10.506;2023-03-02T07:22:34;101610.19;;;-0.13;100.00
32638;BME280;19045;52.268;10.506;2023-03-02T07:25:01;101604.38;;;0.10;100.00
32638;BME280;19045;52.268;10.506;2023-03-02T07:27:27;101610.19;;;0.29;100.00
32638;BME280;19045;52.268;10.506;2023-03-02T07:29:55;101603.47;;;0.43;100.00
32638;BME280;19045;52.268;10.506;2023-03-02T07:32:22;101607.78;;;0.52;100.00
32638;BME280;19045;52.268;10.506;2023-03-02T07:34:48;101607.09;;;0.50;100.00
32638;BME280;19045;52.268;10.506;2023-03-02T07:37:15;101604.31;;;0.60;100.00
32638;BME280;19045;52.268;10.506;2023-03-02T07:39:42;101613.72;;;0.70;100.00
32638;BME280;19045;52.268;10.506;2023-03-02T07:42:11;101604.31;;;0.68;100.00
32638;BME280;19045;52.268;10.506;2023-03-02T07:44:38;101607.25;;;0.48;100.00
32638;BME280;19045;52.268;10.506;2023-03-02T07:47:06;101603.28;;;0.44;100.00
32638;BME280;19045;52.268;10.506;2023-03-02T07:49:32;101601.97;;;0.57;100.00
32638;BME280;19045;52.268;10.506;2023-03-02T07:51:59;101597.53;;;0.57;100.00
32638;BME280;19045;52.268;10.506;2023-03-02T07:54:26;101595.53;;;0.43;100.00
32638;BME280;19045;52.268;10.506;2023-03-02T07:56:54;101592.88;;;0.43;100.00
32638;BME280;19045;52.268;10.506;2023-03-02T07:59:21;101601.28;;;0.46;100.00
32638;BME280;19045;52.268;10.506;2023-03-02T08:01:48;101591.41;;;0.57;100.00
32638;BME280;19045;52.268;10.506;2023-03-02T08:04:16;101594.41;;;0.78;100.00
32638;BME280;19045;52.268;10.506;2023-03-02T08:06:42;101600.22;;;0.89;100.00
32638;BME280;19045;52.268;10.506;2023-03-02T08:09:09;101597.56;;;0.89;100.00
32638;BME280;19045;52.268;10.506;2023-03-02T08:11:35;101607.63;;;0.78;100.00
32638;BME280;19045;52.268;10.506;2023-03-02T08:14:02;101609.44;;;0.77;100.00
32638;BME280;19045;52.268;10.506;2023-03-02T08:16:29;101599.72;;;0.86;100.00
32638;BME280;19045;52.268;10.506;2023-03-02T08:18:56;101605.00;;;0.86;100.00
32638;BME280;19045;52.268;10.506;2023-03-02T08:21:25;101604.34;;;0.76;100.00
32638;BME280;19045;52.268;10.506;2023-03-02T08:23:52;101601.16;;;0.64;100.00
32638;BME280;19045;52.268;10.506;2023-03-02T08:26:19;101607.75;;;0.60;100.00
32638;BME280;19045;52.268;10.506;2023-03-02T08:28:46;101612.53;;;0.57;100.00
32638;BME280;19045;52.268;10.506;2023-03-02T08:31:13;101608.44;;;0.62;100.00
32638;BME280;19045;52.268;10.506;2023-03-02T08:33:40;101609.47;;;0.85;100.00
32638;BME280;19045;52.268;10.506;2023-03-02T08:36:10;101610.94;;;1.04;100.00
32638;BME280;19045;52.268;10.506;2023-03-02T08:38:39;101607.94;;;1.31;100.00
32638;BME280;19045;52.268;10.506;2023-03-02T08:41:09;101610.06;;;1.52;100.00
32638;BME280;19045;52.268;10.506;2023-03-02T08:43:35;101613.84;;;1.66;100.00
32638;BME280;19045;52.268;10.506;2023-03-02T08:46:02;101611.28;;;1.80;100.00
32638;BME280;19045;52.268;10.506;2023-03-02T08:48:29;101608.66;;;1.80;96.66
32638;BME280;19045;52.268;10.506;2023-03-02T08:50:58;101612.88;;;1.59;95.47
32638;BME280;19045;52.268;10.506;2023-03-02T08:53:26;101619.81;;;1.43;95.92
32638;BME280;19045;52.268;10.506;2023-03-02T08:55:54;101621.63;;;1.43;97.09
32638;BME280;19045;52.268;10.506;2023-03-02T08:58:21;101608.91;;;1.46;97.27
32638;BME280;19045;52.268;10.506;2023-03-02T09:00:48;101613.69;;;1.43;97.47
32638;BME280;19045;52.268;10.506;2023-03-02T09:03:15;101609.03;;;1.53;98.86
32638;BME280;19045;52.268;10.506;2023-03-02T09:05:42;101612.53;;;1.62;98.02
32638;BME280;19045;52.268;10.506;2023-03-02T09:08:10;101608.41;;;1.59;98.29
32638;BME280;19045;52.268;10.506;2023-03-02T09:10:37;101601.03;;;1.77;98.34
32638;BME280;19045;52.268;10.506;2023-03-02T09:13:05;101603.16;;;1.90;97.18
32638;BME280;19045;52.268;10.506;2023-03-02T09:15:32;101607.16;;;2.17;97.82
32638;BME280;19045;52.268;10.506;2023-03-02T09:17:59;101605.50;;;2.16;94.34
32638;BME280;19045;52.268;10.506;2023-03-02T09:20:25;101606.59;;;1.98;93.75
32638;BME280;19045;52.268;10.506;2023-03-02T09:22:52;101607.09;;;2.02;95.10
32638;BME280;19045;52.268;10.506;2023-03-02T09:25:19;101602.22;;;2.14;95.77
32638;BME280;19045;52.268;10.506;2023-03-02T09:27:45;101605.31;;;2.25;93.97
32638;BME280;19045;52.268;10.506;2023-03-02T09:30:14;101609.44;;;2.28;93.51
32638;BME280;19045;52.268;10.506;2023-03-02T09:32:41;101618.88;;;2.22;93.45
32638;BME280;19045;52.268;10.506;2023-03-02T09:35:08;101614.41;;;2.31;94.46
32638;BME280;19045;52.268;10.506;2023-03-02T09:37:35;101618.78;;;2.46;95.00
32638;BME280;19045;52.268;10.506;2023-03-02T09:40:05;101615.19;;;2.62;94.23
32638;BME280;19045;52.268;10.506;2023-03-02T09:43:01;101615.66;;;2.66;92.72
32638;BME280;19045;52.268;10.506;2023-03-02T09:45:38;101630.06;;;2.71;92.45
32638;BME280;19045;52.268;10.506;2023-03-02T09:48:15;101620.69;;;2.83;92.04
32638;BME280;19045;52.268;10.506;2023-03-02T09:50:52;101615.56;;;3.04;90.82
32638;BME280;19045;52.268;10.506;2023-03-02T09:53:38;101600.47;;;3.20;90.09
32638;BME280;19045;52.268;10.506;2023-03-02T09:56:12;101609.13;;;3.36;87.25
32638;BME280;19045;52.268;10.506;2023-03-02T09:58:41;101596.22;;;3.62;87.04
32638;BME280;19045;52.268;10.506;2023-03-02T10:01:15;101589.97;;;3.85;85.86
32638;BME280;19045;52.268;10.506;2023-03-02T10:03:48;101598.22;;;4.04;84.82
32638;BME280;19045;52.268;10.506;2023-03-02T10:06:17;101592.63;;;4.14;83.65
32638;BME280;19045;52.268;10.506;2023-03-02T10:08:44;101586.78;;;4.40;83.30
32638;BME280;19045;52.268;10.506;2023-03-02T10:11:13;101588.81;;;4.59;81.13
32638;BME280;19045;52.268;10.506;2023-03-02T10:13:44;101588.25;;;4.63;80.67
32638;BME280;19045;52.268;10.506;2023-03-02T10:16:22;101589.16;;;4.71;79.94
32638;BME280;19045;52.268;10.506;2023-03-02T10:18:59;101592.31;;;4.59;79.81
32638;BME280;19045;52.268;10.506;2023-03-02T10:21:33;101592.22;;;4.74;79.92
32638;BME280;19045;52.268;10.506;2023-03-02T10:24:11;101583.94;;;4.84;79.10
32638;BME280;19045;52.268;10.506;2023-03-02T10:26:41;101599.16;;;4.68;78.14
32638;BME280;19045;52.268;10.506;2023-03-02T10:29:32;101594.19;;;4.44;79.80
32638;BME280;19045;52.268;10.506;2023-03-02T10:32:03;101593.38;;;4.44;80.16
32638;BME280;19045;52.268;10.506;2023-03-02T10:34:34;101583.84;;;4.35;81.25
32638;BME280;19045;52.268;10.506;2023-03-02T10:37:01;101583.34;;;4.46;82.13
32638;BME280;19045;52.268;10.506;2023-03-02T10:39:28;101586.66;;;4.48;80.38
32638;BME280;19045;52.268;10.506;2023-03-02T10:41:57;101583.47;;;4.38;81.94
32638;BME280;19045;52.268;10.506;2023-03-02T10:44:30;101581.06;;;4.43;82.12
32638;BME280;19045;52.268;10.506;2023-03-02T10:47:02;101581.69;;;4.45;81.48
32638;BME280;19045;52.268;10.506;2023-03-02T10:49:31;101583.31;;;4.60;81.62
32638;BME280;19045;52.268;10.506;2023-03-02T10:52:00;101583.28;;;4.39;80.94
32638;BME280;19045;52.268;10.506;2023-03-02T10:54:28;101583.16;;;4.26;82.17
32638;BME280;19045;52.268;10.506;2023-03-02T10:56:57;101575.47;;;4.38;81.58
32638;BME280;19045;52.268;10.506;2023-03-02T10:59:42;101570.75;;;4.33;82.32
32638;BME280;19045;52.268;10.506;2023-03-02T11:02:16;101566.81;;;4.72;82.39
32638;BME280;19045;52.268;10.506;2023-03-02T11:04:43;101567.53;;;4.80;80.79
32638;BME280;19045;52.268;10.506;2023-03-02T11:07:15;101571.00;;;5.02;80.78
32638;BME280;19045;52.268;10.506;2023-03-02T11:09:42;101570.78;;;5.31;79.08
32638;BME280;19045;52.268;10.506;2023-03-02T11:12:13;101562.81;;;5.65;77.89
32638;BME280;19045;52.268;10.506;2023-03-02T11:14:40;101560.00;;;5.80;76.00
32638;BME280;19045;52.268;10.506;2023-03-02T11:17:27;101550.94;;;6.02;75.19
32638;BME280;19045;52.268;10.506;2023-03-02T11:19:55;101552.56;;;6.03;74.95
32638;BME280;19045;52.268;10.506;2023-03-02T11:22:26;101560.56;;;6.03;75.19
32638;BME280;19045;52.268;10.506;2023-03-02T11:24:57;101560.50;;;5.90;73.80
32638;BME280;19045;52.268;10.506;2023-03-02T11:27:26;101551.91;;;5.60;74.33
32638;BME280;19045;52.268;10.506;2023-03-02T11:29:58;101560.34;;;5.30;76.26
32638;BME280;19045;52.268;10.506;2023-03-02T11:32:32;101557.72;;;5.08;77.69
32638;BME280;19045;52.268;10.506;2023-03-02T11:35:02;101559.31;;;5.03;80.17
32638;BME280;19045;52.268;10.506;2023-03-02T11:37:35;101559.38;;;5.09;79.75
32638;BME280;19045;52.268;10.506;2023-03-02T11:40:16;101548.69;;;5.03;81.35
32638;BME280;19045;52.268;10.506;2023-03-02T11:42:45;101549.44;;;7.00;77.86
32638;BME280;19045;52.268;10.506;2023-03-02T11:45:19;101532.34;;;8.73;67.16
32638;BME280;19045;52.268;10.506;2023-03-02T11:47:52;101539.91;;;9.51;62.93
32638;BME280;19045;52.268;10.506;2023-03-02T11:50:21;101536.09;;;9.76;59.41
32638;BME280;19045;52.268;10.506;2023-03-02T11:52:51;101532.88;;;9.68;59.58
32638;BME280;19045;52.268;10.506;2023-03-02T11:55:21;101534.91;;;9.54;59.56
32638;BME280;19045;52.268;10.506;2023-03-02T11:57:51;101525.28;;;9.65;58.11
32638;BME280;19045;52.268;10.506;2023-03-02T12:00:27;101531.81;;;10.05;57.16
32638;BME280;19045;52.268;10.506;2023-03-02T12:03:05;101523.78;;;9.69;57.22
32638;BME280;19045;52.268;10.506;2023-03-02T12:05:35;101527.31;;;9.08;59.04
32638;BME280;19045;52.268;10.506;2023-03-02T12:08:04;101527.84;;;8.36;62.69
32638;BME280;19045;52.268;10.506;2023-03-02T12:10:35;101527.16;;;8.09;63.93
32638;BME280;19045;52.268;10.506;2023-03-02T12:13:13;101528.94;;;7.84;64.73
32638;BME280;19045;52.268;10.506;2023-03-02T12:15:41;101520.53;;;7.74;65.47
32638;BME280;19045;52.268;10.506;2023-03-02T12:18:28;101520.91;;;7.84;64.86
32638;BME280;19045;52.268;10.506;2023-03-02T12:21:00;101528.91;;;7.91;65.78
32638;BME280;19045;52.268;10.506;2023-03-02T12:23:27;101515.25;;;8.43;64.82
32638;BME280;19045;52.268;10.506;2023-03-02T12:26:05;101510.56;;;9.13;60.06
32638;BME280;19045;52.268;10.506;2023-03-02T12:28:34;101523.00;;;9.07;60.26
32638;BME280;19045;52.268;10.506;2023-03-02T12:31:07;101510.19;;;8.35;63.28
32638;BME280;19045;52.268;10.506;2023-03-02T12:33:41;101512.38;;;7.43;67.49
32638;BME280;19045;52.268;10.506;2023-03-02T12:36:12;101517.78;;;6.57;71.19
32638;BME280;19045;52.268;10.506;2023-03-02T12:38:40;101512.34;;;6.05;75.02
32638;BME280;19045;52.268;10.506;2023-03-02T12:41:39;101512.22;;;5.72;77.29
32638;BME280;19045;52.268;10.506;2023-03-02T12:44:24;101513.19;;;5.24;79.46
32638;BME280;19045;52.268;10.506;2023-03-02T12:46:57;101509.66;;;5.16;81.28
32638;BME280;19045;52.268;10.506;2023-03-02T12:49:33;101509.09;;;4.93;82.50
32638;BME280;19045;52.268;10.506;2023-03-02T12:52:19;101508.81;;;4.88;82.79
32638;BME280;19045;52.268;10.506;2023-03-02T12:54:57;101506.94;;;4.82;83.30
32638;BME280;19045;52.268;10.506;2023-03-02T12:57:23;101502.63;;;4.81;82.94